sensor_id;sensor_type;location;lat;lon;timestamp;P1;durP1;ratioP1;P2;durP2;ratioP2
15385;SDS011;7791;47.246;9.648;2022-08-20T00:00:01;11.63;;;5.30;;
15385;SDS011;7791;47.246;9.648;2022-08-20T00:02:28;10.57;;;5.10;;
15385;SDS011;7791;47.246;9.648;2022-08-20T00:04:54;7.37;;;4.73;;
15385;SDS011;7791;47.246;9.648;2022-08-20T00:07:19;6.97;;;4.70;;
15385;SDS011;7791;47.246;9.648;2022-08-20T00:09:45;7.83;;;4.70;;
15385;SDS011;7791;47.246;9.648;2022-08-20T00:12:14;8.60;;;4.93;;
15385;SDS011;7791;47.246;9.648;2022-08-20T00:14:41;11.27;;;5.07;;
15385;SDS011;7791;47.246;9.648;2022-08-20T00:17:06;9.70;;;5.63;;
15385;SDS011;7791;47.246;9.648;2022-08-20T00:19:32;8.07;;;4.77;;
15385;SDS011;7791;47.246;9.648;2022-08-20T00:21:58;11.07;;;5.00;;
15385;SDS011;7791;47.246;9.648;2022-08-20T00:24:24;7.83;;;4.63;;
15385;SDS011;7791;47.246;9.648;2022-08-20T00:26:50;8.23;;;4.90;;
15385;SDS011;7791;47.246;9.648;2022-08-20T00:29:17;7.23;;;4.30;;
15385;SDS011;7791;47.246;9.648;2022-08-20T00:31:43;6.80;;;4.13;;
15385;SDS011;7791;47.246;9.648;2022-08-20T00:34:08;6.77;;;4.40;;
15385;SDS011;7791;47.246;9.648;2022-08-20T00:36:34;7.83;;;4.00;;
15385;SDS011;7791;47.246;9.648;2022-08-20T00:39:00;5.83;;;4.20;;
15385;SDS011;7791;47.246;9.648;2022-08-20T00:41:26;8.67;;;4.60;;
15385;SDS011;7791;47.246;9.648;2022-08-20T00:44:03;9.97;;;5.20;;
15385;SDS011;7791;47.246;9.648;2022-08-20T00:46:33;9.23;;;5.00;;
15385;SDS011;7791;47.246;9.648;2022-08-20T00:48:59;7.63;;;4.80;;
15385;SDS011;7791;47.246;9.648;2022-08-20T00:51:28;9.83;;;5.30;;
15385;SDS011;7791;47.246;9.648;2022-08-20T00:53:57;10.70;;;5.57;;
15385;SDS011;7791;47.246;9.648;2022-08-20T00:56:27;10.90;;;5.73;;
15385;SDS011;7791;47.246;9.648;2022-08-20T00:58:54;9.10;;;6.00;;
15385;SDS011;7791;47.246;9.648;2022-08-20T01:01:20;12.37;;;6.73;;
15385;SDS011;7791;47.246;9.648;2022-08-20T01:03:47;16.30;;;6.93;;
15385;SDS011;7791;47.246;9.648;2022-08-20T01:06:14;10.80;;;6.73;;
15385;SDS011;7791;47.246;9.648;2022-08-20T01:08:39;12.37;;;6.60;;
15385;SDS011;7791;47.246;9.648;2022-08-20T01:11:06;11.63;;;6.40;;
15385;SDS011;7791;47.246;9.648;2022-08-20T01:13:32;11.97;;;6.07;;
15385;SDS011;7791;47.246;9.648;2022-08-20T01:16:00;10.40;;;5.77;;
15385;SDS011;7791;47.246;9.648;2022-08-20T01:18:28;16.63;;;7.20;;
15385;SDS011;7791;47.246;9.648;2022-08-20T01:20:56;13.27;;;7.30;;
15385;SDS011;7791;47.246;9.648;2022-08-20T01:23:26;15.73;;;7.07;;
15385;SDS011;7791;47.246;9.648;2022-08-20T01:26:00;13.57;;;6.30;;
15385;SDS011;7791;47.246;9.648;2022-08-20T01:28:32;15.10;;;7.00;;
15385;SDS011;7791;47.246;9.648;2022-08-20T01:31:01;14.27;;;7.20;;
15385;SDS011;7791;47.246;9.648;2022-08-20T01:33:28;11.10;;;7.00;;
15385;SDS011;7791;47.246;9.648;2022-08-20T01:35:54;12.13;;;6.93;;
15385;SDS011;7791;47.246;9.648;2022-08-20T01:38:20;15.13;;;7.33;;
15385;SDS011;7791;47.246;9.648;2022-08-20T01:43:55;15.30;;;7.80;;
15385;SDS011;7791;47.246;9.648;2022-08-20T01:46:22;19.47;;;8.13;;
15385;SDS011;7791;47.246;9.648;2022-08-20T01:48:51;15.13;;;8.00;;
15385;SDS011;7791;47.246;9.648;2022-08-20T01:51:19;19.13;;;8.43;;
15385;SDS011;7791;47.246;9.648;2022-08-20T01:53:50;16.13;;;8.50;;
15385;SDS011;7791;47.246;9.648;2022-08-20T01:56:18;17.57;;;9.10;;
15385;SDS011;7791;47.246;9.648;2022-08-20T01:58:49;16.07;;;8.80;;
15385;SDS011;7791;47.246;9.648;2022-08-20T02:01:20;15.03;;;8.33;;
15385;SDS011;7791;47.246;9.648;2022-08-20T02:03:48;16.07;;;8.67;;
15385;SDS011;7791;47.246;9.648;2022-08-20T02:06:14;17.67;;;8.70;;
15385;SDS011;7791;47.246;9.648;2022-08-20T02:08:40;19.27;;;8.50;;
15385;SDS011;7791;47.246;9.648;2022-08-20T02:11:07;20.07;;;9.03;;
15385;SDS011;7791;47.246;9.648;2022-08-20T02:13:32;22.40;;;9.87;;
15385;SDS011;7791;47.246;9.648;2022-08-20T02:16:00;20.17;;;9.57;;
15385;SDS011;7791;47.246;9.648;2022-08-20T02:18:25;14.77;;;9.20;;
15385;SDS011;7791;47.246;9.648;2022-08-20T02:20:51;21.93;;;9.53;;
15385;SDS011;7791;47.246;9.648;2022-08-20T02:23:17;18.87;;;9.40;;
15385;SDS011;7791;47.246;9.648;2022-08-20T02:25:44;16.53;;;8.83;;
15385;SDS011;7791;47.246;9.648;2022-08-20T02:28:12;19.90;;;9.07;;
15385;SDS011;7791;47.246;9.648;2022-08-20T02:30:40;17.63;;;9.33;;
15385;SDS011;7791;47.246;9.648;2022-08-20T02:33:09;23.60;;;9.77;;
15385;SDS011;7791;47.246;9.648;2022-08-20T02:35:37;25.13;;;9.10;;
15385;SDS011;7791;47.246;9.648;2022-08-20T02:38:05;24.43;;;10.13;;
15385;SDS011;7791;47.246;9.648;2022-08-20T02:40:31;25.50;;;10.57;;
15385;SDS011;7791;47.246;9.648;2022-08-20T02:42:57;23.30;;;9.23;;
15385;SDS011;7791;47.246;9.648;2022-08-20T02:45:24;24.53;;;9.53;;
15385;SDS011;7791;47.246;9.648;2022-08-20T02:47:50;16.37;;;8.30;;
15385;SDS011;7791;47.246;9.648;2022-08-20T02:50:18;19.07;;;9.20;;
15385;SDS011;7791;47.246;9.648;2022-08-20T02:52:45;22.20;;;9.83;;
15385;SDS011;7791;47.246;9.648;2022-08-20T02:55:11;22.50;;;9.87;;
15385;SDS011;7791;47.246;9.648;2022-08-20T02:57:37;19.60;;;9.27;;
15385;SDS011;7791;47.246;9.648;2022-08-20T03:00:04;23.17;;;9.47;;
15385;SDS011;7791;47.246;9.648;2022-08-20T03:02:34;19.17;;;9.50;;
15385;SDS011;7791;47.246;9.648;2022-08-20T03:04:59;23.53;;;10.37;;
15385;SDS011;7791;47.246;9.648;2022-08-20T03:07:26;21.37;;;9.93;;
15385;SDS011;7791;47.246;9.648;2022-08-20T03:09:52;17.43;;;9.13;;
15385;SDS011;7791;47.246;9.648;2022-08-20T03:12:18;26.20;;;10.17;;
15385;SDS011;7791;47.246;9.648;2022-08-20T03:14:44;20.87;;;10.53;;
15385;SDS011;7791;47.246;9.648;2022-08-20T03:17:09;19.93;;;10.13;;
15385;SDS011;7791;47.246;9.648;2022-08-20T03:19:35;21.43;;;9.67;;
15385;SDS011;7791;47.246;9.648;2022-08-20T03:22:01;23.03;;;9.90;;
15385;SDS011;7791;47.246;9.648;2022-08-20T03:24:28;24.13;;;10.00;;
15385;SDS011;7791;47.246;9.648;2022-08-20T03:26:54;21.97;;;10.17;;
15385;SDS011;7791;47.246;9.648;2022-08-20T03:29:25;19.93;;;11.23;;
15385;SDS011;7791;47.246;9.648;2022-08-20T03:31:50;23.37;;;10.53;;
15385;SDS011;7791;47.246;9.648;2022-08-20T03:34:16;21.57;;;10.40;;
15385;SDS011;7791;47.246;9.648;2022-08-20T03:36:42;15.53;;;8.60;;
15385;SDS011;7791;47.246;9.648;2022-08-20T03:39:08;18.70;;;9.40;;
15385;SDS011;7791;47.246;9.648;2022-08-20T03:41:35;24.70;;;10.40;;
15385;SDS011;7791;47.246;9.648;2022-08-20T03:44:01;21.93;;;9.73;;
15385;SDS011;7791;47.246;9.648;2022-08-20T03:46:27;20.87;;;9.53;;
15385;SDS011;7791;47.246;9.648;2022-08-20T03:48:53;22.60;;;11.00;;
15385;SDS011;7791;47.246;9.648;2022-08-20T03:51:19;19.73;;;10.80;;
15385;SDS011;7791;47.246;9.648;2022-08-20T03:53:45;32.80;;;12.57;;
15385;SDS011;7791;47.246;9.648;2022-08-20T03:56:11;27.73;;;12.00;;
15385;SDS011;7791;47.246;9.648;2022-08-20T03:58:38;30.17;;;12.60;;
15385;SDS011;7791;47.246;9.648;2022-08-20T04:01:04;23.77;;;10.60;;
15385;SDS011;7791;47.246;9.648;2022-08-20T04:03:30;35.83;;;12.13;;
15385;SDS011;7791;47.246;9.648;2022-08-20T04:05:56;25.73;;;10.90;;
15385;SDS011;7791;47.246;9.648;2022-08-20T04:08:23;22.23;;;10.13;;
15385;SDS011;7791;47.246;9.648;2022-08-20T04:10:50;23.90;;;10.43;;
15385;SDS011;7791;47.246;9.648;2022-08-20T04:13:16;61.17;;;13.93;;
15385;SDS011;7791;47.246;9.648;2022-08-20T04:15:45;29.70;;;11.97;;
15385;SDS011;7791;47.246;9.648;2022-08-20T04:18:13;34.70;;;12.97;;
15385;SDS011;7791;47.246;9.648;2022-08-20T04:20:40;42.13;;;13.70;;
15385;SDS011;7791;47.246;9.648;2022-08-20T04:23:07;72.03;;;13.83;;
15385;SDS011;7791;47.246;9.648;2022-08-20T04:25:34;91.13;;;14.37;;
15385;SDS011;7791;47.246;9.648;2022-08-20T04:28:02;25.60;;;11.47;;
15385;SDS011;7791;47.246;9.648;2022-08-20T04:30:30;30.07;;;13.77;;
15385;SDS011;7791;47.246;9.648;2022-08-20T04:32:58;22.53;;;12.33;;
15385;SDS011;7791;47.246;9.648;2022-08-20T04:35:24;30.73;;;13.53;;
15385;SDS011;7791;47.246;9.648;2022-08-20T04:37:56;30.47;;;13.53;;
15385;SDS011;7791;47.246;9.648;2022-08-20T04:40:23;23.57;;;11.63;;
15385;SDS011;7791;47.246;9.648;2022-08-20T04:42:49;28.47;;;13.10;;
15385;SDS011;7791;47.246;9.648;2022-08-20T04:45:15;31.87;;;13.47;;
15385;SDS011;7791;47.246;9.648;2022-08-20T04:47:41;37.37;;;14.77;;
15385;SDS011;7791;47.246;9.648;2022-08-20T04:50:09;33.27;;;13.33;;
15385;SDS011;7791;47.246;9.648;2022-08-20T04:52:36;35.10;;;12.87;;
15385;SDS011;7791;47.246;9.648;2022-08-20T04:55:02;40.90;;;14.53;;
15385;SDS011;7791;47.246;9.648;2022-08-20T04:57:28;38.77;;;12.60;;
15385;SDS011;7791;47.246;9.648;2022-08-20T04:59:54;33.73;;;12.50;;
15385;SDS011;7791;47.246;9.648;2022-08-20T05:02:19;31.13;;;12.63;;
15385;SDS011;7791;47.246;9.648;2022-08-20T05:04:46;34.07;;;13.67;;
15385;SDS011;7791;47.246;9.648;2022-08-20T05:07:13;32.87;;;13.27;;
15385;SDS011;7791;47.246;9.648;2022-08-20T05:09:40;31.07;;;13.07;;
15385;SDS011;7791;47.246;9.648;2022-08-20T05:12:06;29.07;;;13.13;;
15385;SDS011;7791;47.246;9.648;2022-08-20T05:14:32;26.03;;;12.87;;
15385;SDS011;7791;47.246;9.648;2022-08-20T05:17:00;27.57;;;12.10;;
15385;SDS011;7791;47.246;9.648;2022-08-20T05:19:27;26.13;;;12.27;;
15385;SDS011;7791;47.246;9.648;2022-08-20T05:21:55;32.57;;;12.23;;
15385;SDS011;7791;47.246;9.648;2022-08-20T05:24:23;40.40;;;13.97;;
15385;SDS011;7791;47.246;9.648;2022-08-20T05:26:49;40.60;;;15.00;;
15385;SDS011;7791;47.246;9.648;2022-08-20T05:29:14;42.30;;;14.37;;
15385;SDS011;7791;47.246;9.648;2022-08-20T05:31:40;34.17;;;14.67;;
15385;SDS011;7791;47.246;9.648;2022-08-20T05:34:07;39.07;;;16.40;;
15385;SDS011;7791;47.246;9.648;2022-08-20T05:36:34;25.87;;;14.07;;
15385;SDS011;7791;47.246;9.648;2022-08-20T05:39:00;32.83;;;14.83;;
15385;SDS011;7791;47.246;9.648;2022-08-20T05:41:28;27.17;;;13.47;;
15385;SDS011;7791;47.246;9.648;2022-08-20T05:43:54;23.67;;;11.97;;
15385;SDS011;7791;47.246;9.648;2022-08-20T05:46:19;22.97;;;12.47;;
15385;SDS011;7791;47.246;9.648;2022-08-20T05:48:45;27.43;;;12.40;;
15385;SDS011;7791;47.246;9.648;2022-08-20T05:51:11;28.57;;;13.10;;
15385;SDS011;7791;47.246;9.648;2022-08-20T05:53:37;28.57;;;13.63;;
15385;SDS011;7791;47.246;9.648;2022-08-20T05:56:02;30.23;;;14.27;;
15385;SDS011;7791;47.246;9.648;2022-08-20T05:58:30;25.70;;;13.27;;
15385;SDS011;7791;47.246;9.648;2022-08-20T06:00:56;29.90;;;14.27;;
15385;SDS011;7791;47.246;9.648;2022-08-20T06:03:22;23.23;;;12.87;;
15385;SDS011;7791;47.246;9.648;2022-08-20T06:05:47;25.80;;;13.17;;
15385;SDS011;7791;47.246;9.648;2022-08-20T06:08:13;22.13;;;12.97;;
15385;SDS011;7791;47.246;9.648;2022-08-20T06:10:39;27.47;;;15.10;;
15385;SDS011;7791;47.246;9.648;2022-08-20T06:13:05;25.30;;;13.57;;
15385;SDS011;7791;47.246;9.648;2022-08-20T06:15:33;29.73;;;14.80;;
15385;SDS011;7791;47.246;9.648;2022-08-20T06:17:59;21.63;;;13.20;;
15385;SDS011;7791;47.246;9.648;2022-08-20T06:20:25;19.70;;;12.27;;
15385;SDS011;7791;47.246;9.648;2022-08-20T06:22:51;18.33;;;11.43;;
15385;SDS011;7791;47.246;9.648;2022-08-20T06:25:17;19.43;;;11.63;;
15385;SDS011;7791;47.246;9.648;2022-08-20T06:27:43;17.53;;;11.23;;
15385;SDS011;7791;47.246;9.648;2022-08-20T06:30:10;16.50;;;10.60;;
15385;SDS011;7791;47.246;9.648;2022-08-20T06:32:39;15.77;;;10.73;;
15385;SDS011;7791;47.246;9.648;2022-08-20T06:35:06;19.43;;;12.10;;
15385;SDS011;7791;47.246;9.648;2022-08-20T06:37:33;21.50;;;12.93;;
15385;SDS011;7791;47.246;9.648;2022-08-20T06:40:02;17.20;;;12.10;;
15385;SDS011;7791;47.246;9.648;2022-08-20T06:42:30;13.77;;;10.23;;
15385;SDS011;7791;47.246;9.648;2022-08-20T06:44:56;13.47;;;9.60;;
15385;SDS011;7791;47.246;9.648;2022-08-20T06:47:22;12.60;;;9.50;;
15385;SDS011;7791;47.246;9.648;2022-08-20T06:49:49;9.30;;;7.87;;
15385;SDS011;7791;47.246;9.648;2022-08-20T06:52:15;6.43;;;5.83;;
15385;SDS011;7791;47.246;9.648;2022-08-20T06:54:41;6.73;;;5.37;;
15385;SDS011;7791;47.246;9.648;2022-08-20T06:57:06;6.25;;;5.13;;
15385;SDS011;7791;47.246;9.648;2022-08-20T06:59:32;6.95;;;5.03;;
15385;SDS011;7791;47.246;9.648;2022-08-20T07:01:58;6.28;;;4.55;;
15385;SDS011;7791;47.246;9.648;2022-08-20T07:04:25;4.95;;;4.45;;
15385;SDS011;7791;47.246;9.648;2022-08-20T07:06:52;5.20;;;4.32;;
15385;SDS011;7791;47.246;9.648;2022-08-20T07:09:19;5.45;;;4.43;;
15385;SDS011;7791;47.246;9.648;2022-08-20T07:11:45;5.00;;;4.28;;
15385;SDS011;7791;47.246;9.648;2022-08-20T07:14:14;5.85;;;4.40;;
15385;SDS011;7791;47.246;9.648;2022-08-20T07:16:41;4.72;;;4.25;;
15385;SDS011;7791;47.246;9.648;2022-08-20T07:19:07;5.30;;;3.85;;
15385;SDS011;7791;47.246;9.648;2022-08-20T07:21:33;5.10;;;3.80;;
15385;SDS011;7791;47.246;9.648;2022-08-20T07:24:00;7.03;;;4.15;;
15385;SDS011;7791;47.246;9.648;2022-08-20T07:26:27;5.20;;;3.58;;
15385;SDS011;7791;47.246;9.648;2022-08-20T07:28:52;4.95;;;4.10;;
15385;SDS011;7791;47.246;9.648;2022-08-20T07:31:18;4.88;;;4.13;;
15385;SDS011;7791;47.246;9.648;2022-08-20T07:33:44;4.07;;;3.67;;
15385;SDS011;7791;47.246;9.648;2022-08-20T07:36:10;5.63;;;4.47;;
15385;SDS011;7791;47.246;9.648;2022-08-20T07:38:36;4.55;;;4.15;;
15385;SDS011;7791;47.246;9.648;2022-08-20T07:41:04;4.88;;;4.22;;
15385;SDS011;7791;47.246;9.648;2022-08-20T07:43:31;4.43;;;4.00;;
15385;SDS011;7791;47.246;9.648;2022-08-20T07:45:58;4.38;;;3.95;;
15385;SDS011;7791;47.246;9.648;2022-08-20T07:48:25;5.00;;;4.47;;
15385;SDS011;7791;47.246;9.648;2022-08-20T07:50:52;4.68;;;4.28;;
15385;SDS011;7791;47.246;9.648;2022-08-20T07:53:18;5.53;;;4.22;;
15385;SDS011;7791;47.246;9.648;2022-08-20T07:55:44;4.80;;;4.35;;
15385;SDS011;7791;47.246;9.648;2022-08-20T07:58:13;9.05;;;4.20;;
15385;SDS011;7791;47.246;9.648;2022-08-20T08:00:41;7.43;;;4.43;;
15385;SDS011;7791;47.246;9.648;2022-08-20T08:03:07;4.57;;;3.95;;
15385;SDS011;7791;47.246;9.648;2022-08-20T08:05:34;7.05;;;4.07;;
15385;SDS011;7791;47.246;9.648;2022-08-20T08:08:02;6.05;;;4.05;;
15385;SDS011;7791;47.246;9.648;2022-08-20T08:10:29;5.18;;;4.40;;
15385;SDS011;7791;47.246;9.648;2022-08-20T08:12:57;5.97;;;4.45;;
15385;SDS011;7791;47.246;9.648;2022-08-20T08:15:27;5.60;;;4.05;;
15385;SDS011;7791;47.246;9.648;2022-08-20T08:17:54;5.45;;;3.97;;
15385;SDS011;7791;47.246;9.648;2022-08-20T08:20:24;4.72;;;4.18;;
15385;SDS011;7791;47.246;9.648;2022-08-20T08:22:50;6.20;;;3.95;;
15385;SDS011;7791;47.246;9.648;2022-08-20T08:25:16;5.57;;;4.20;;
15385;SDS011;7791;47.246;9.648;2022-08-20T08:27:42;7.43;;;4.00;;
15385;SDS011;7791;47.246;9.648;2022-08-20T08:30:09;6.03;;;4.05;;
15385;SDS011;7791;47.246;9.648;2022-08-20T08:32:37;4.53;;;3.92;;
15385;SDS011;7791;47.246;9.648;2022-08-20T08:35:12;4.20;;;3.58;;
15385;SDS011;7791;47.246;9.648;2022-08-20T08:37:38;4.28;;;3.67;;
15385;SDS011;7791;47.246;9.648;2022-08-20T08:40:04;3.70;;;3.40;;
15385;SDS011;7791;47.246;9.648;2022-08-20T08:42:33;4.53;;;3.72;;
15385;SDS011;7791;47.246;9.648;2022-08-20T08:45:05;4.20;;;3.80;;
15385;SDS011;7791;47.246;9.648;2022-08-20T08:47:33;4.72;;;3.90;;
15385;SDS011;7791;47.246;9.648;2022-08-20T08:52:56;5.53;;;4.40;;
15385;SDS011;7791;47.246;9.648;2022-08-20T08:55:25;4.60;;;4.10;;
15385;SDS011;7791;47.246;9.648;2022-08-20T08:57:52;4.95;;;4.45;;
15385;SDS011;7791;47.246;9.648;2022-08-20T09:00:21;4.28;;;3.88;;
15385;SDS011;7791;47.246;9.648;2022-08-20T09:02:55;5.32;;;4.03;;
15385;SDS011;7791;47.246;9.648;2022-08-20T09:05:26;6.95;;;4.35;;
15385;SDS011;7791;47.246;9.648;2022-08-20T09:07:59;7.43;;;4.85;;
15385;SDS011;7791;47.246;9.648;2022-08-20T09:10:26;6.72;;;5.05;;
15385;SDS011;7791;47.246;9.648;2022-08-20T09:12:52;5.63;;;4.65;;
15385;SDS011;7791;47.246;9.648;2022-08-20T09:15:18;6.63;;;4.90;;
15385;SDS011;7791;47.246;9.648;2022-08-20T09:17:44;6.22;;;4.47;;
15385;SDS011;7791;47.246;9.648;2022-08-20T09:20:10;4.95;;;4.15;;
15385;SDS011;7791;47.246;9.648;2022-08-20T09:22:37;4.78;;;4.18;;
15385;SDS011;7791;47.246;9.648;2022-08-20T09:25:03;5.10;;;4.60;;
15385;SDS011;7791;47.246;9.648;2022-08-20T09:27:29;7.05;;;4.20;;
15385;SDS011;7791;47.246;9.648;2022-08-20T09:29:55;5.93;;;4.47;;
15385;SDS011;7791;47.246;9.648;2022-08-20T09:32:22;6.47;;;4.05;;
15385;SDS011;7791;47.246;9.648;2022-08-20T09:37:46;4.85;;;4.10;;
15385;SDS011;7791;47.246;9.648;2022-08-20T09:40:12;5.43;;;4.30;;
15385;SDS011;7791;47.246;9.648;2022-08-20T09:42:39;4.78;;;4.03;;
15385;SDS011;7791;47.246;9.648;2022-08-20T09:45:05;4.47;;;4.00;;
15385;SDS011;7791;47.246;9.648;2022-08-20T09:59:10;4.88;;;4.45;;
15385;SDS011;7791;47.246;9.648;2022-08-20T10:01:45;4.90;;;4.45;;
15385;SDS011;7791;47.246;9.648;2022-08-20T10:04:14;4.55;;;4.15;;
15385;SDS011;7791;47.246;9.648;2022-08-20T10:10:03;5.60;;;4.90;;
15385;SDS011;7791;47.246;9.648;2022-08-20T10:12:35;6.55;;;5.10;;
15385;SDS011;7791;47.246;9.648;2022-08-20T10:15:05;5.10;;;4.57;;
15385;SDS011;7791;47.246;9.648;2022-08-20T10:17:42;6.25;;;5.05;;
15385;SDS011;7791;47.246;9.648;2022-08-20T10:20:18;5.15;;;4.53;;
15385;SDS011;7791;47.246;9.648;2022-08-20T10:22:46;5.28;;;4.78;;
15385;SDS011;7791;47.246;9.648;2022-08-20T10:25:25;5.50;;;4.57;;
15385;SDS011;7791;47.246;9.648;2022-08-20T10:27:58;5.03;;;4.47;;
15385;SDS011;7791;47.246;9.648;2022-08-20T10:30:28;5.75;;;4.63;;
15385;SDS011;7791;47.246;9.648;2022-08-20T10:32:59;7.13;;;4.97;;
15385;SDS011;7791;47.246;9.648;2022-08-20T10:35:25;5.63;;;4.35;;
15385;SDS011;7791;47.246;9.648;2022-08-20T10:37:52;4.95;;;4.47;;
15385;SDS011;7791;47.246;9.648;2022-08-20T10:40:23;6.47;;;4.45;;
15385;SDS011;7791;47.246;9.648;2022-08-20T10:42:49;7.75;;;4.93;;
15385;SDS011;7791;47.246;9.648;2022-08-20T10:45:16;7.57;;;4.67;;
15385;SDS011;7791;47.246;9.648;2022-08-20T10:47:43;5.82;;;4.28;;
15385;SDS011;7791;47.246;9.648;2022-08-20T10:50:10;5.13;;;4.53;;
15385;SDS011;7791;47.246;9.648;2022-08-20T10:52:40;5.03;;;4.47;;
15385;SDS011;7791;47.246;9.648;2022-08-20T10:55:07;4.50;;;3.93;;
15385;SDS011;7791;47.246;9.648;2022-08-20T10:57:36;5.97;;;4.40;;
15385;SDS011;7791;47.246;9.648;2022-08-20T11:00:04;5.43;;;4.90;;
15385;SDS011;7791;47.246;9.648;2022-08-20T11:02:31;5.87;;;5.17;;
15385;SDS011;7791;47.246;9.648;2022-08-20T11:04:59;5.93;;;5.23;;
15385;SDS011;7791;47.246;9.648;2022-08-20T11:07:28;6.20;;;5.60;;
15385;SDS011;7791;47.246;9.648;2022-08-20T11:12:41;6.33;;;5.37;;
15385;SDS011;7791;47.246;9.648;2022-08-20T11:18:17;6.40;;;5.45;;
15385;SDS011;7791;47.246;9.648;2022-08-20T11:20:44;6.90;;;5.90;;
15385;SDS011;7791;47.246;9.648;2022-08-20T11:23:11;6.25;;;5.55;;
15385;SDS011;7791;47.246;9.648;2022-08-20T11:25:38;6.78;;;5.75;;
15385;SDS011;7791;47.246;9.648;2022-08-20T11:28:05;7.15;;;5.50;;
15385;SDS011;7791;47.246;9.648;2022-08-20T11:30:33;6.78;;;5.75;;
15385;SDS011;7791;47.246;9.648;2022-08-20T11:33:00;7.07;;;6.38;;
15385;SDS011;7791;47.246;9.648;2022-08-20T11:35:27;6.18;;;5.53;;
15385;SDS011;7791;47.246;9.648;2022-08-20T11:37:55;8.73;;;6.78;;
15385;SDS011;7791;47.246;9.648;2022-08-20T11:40:22;7.28;;;6.57;;
15385;SDS011;7791;47.246;9.648;2022-08-20T11:42:48;7.68;;;6.88;;
15385;SDS011;7791;47.246;9.648;2022-08-20T11:45:16;9.23;;;6.65;;
15385;SDS011;7791;47.246;9.648;2022-08-20T11:47:42;8.63;;;7.40;;
15385;SDS011;7791;47.246;9.648;2022-08-20T11:50:09;10.50;;;8.00;;
15385;SDS011;7791;47.246;9.648;2022-08-20T11:52:37;8.23;;;6.70;;
15385;SDS011;7791;47.246;9.648;2022-08-20T11:55:03;9.83;;;6.83;;
15385;SDS011;7791;47.246;9.648;2022-08-20T11:57:31;7.00;;;6.10;;
15385;SDS011;7791;47.246;9.648;2022-08-20T11:59:58;7.93;;;6.30;;
15385;SDS011;7791;47.246;9.648;2022-08-20T12:02:27;7.40;;;6.27;;
15385;SDS011;7791;47.246;9.648;2022-08-20T12:04:53;7.67;;;6.03;;
15385;SDS011;7791;47.246;9.648;2022-08-20T12:07:21;9.33;;;6.10;;
15385;SDS011;7791;47.246;9.648;2022-08-20T12:09:48;7.70;;;6.47;;
15385;SDS011;7791;47.246;9.648;2022-08-20T12:12:14;10.70;;;6.67;;
15385;SDS011;7791;47.246;9.648;2022-08-20T12:14:41;7.70;;;5.90;;
15385;SDS011;7791;47.246;9.648;2022-08-20T12:17:07;9.20;;;6.20;;
15385;SDS011;7791;47.246;9.648;2022-08-20T12:19:36;6.30;;;5.67;;
15385;SDS011;7791;47.246;9.648;2022-08-20T12:25:02;6.00;;;5.40;;
15385;SDS011;7791;47.246;9.648;2022-08-20T12:27:30;6.20;;;5.30;;
15385;SDS011;7791;47.246;9.648;2022-08-20T12:29:57;5.30;;;4.80;;
15385;SDS011;7791;47.246;9.648;2022-08-20T12:32:25;6.70;;;5.20;;
15385;SDS011;7791;47.246;9.648;2022-08-20T12:34:55;7.27;;;5.03;;
15385;SDS011;7791;47.246;9.648;2022-08-20T12:37:22;4.80;;;4.30;;
15385;SDS011;7791;47.246;9.648;2022-08-20T12:39:51;5.60;;;3.87;;
15385;SDS011;7791;47.246;9.648;2022-08-20T12:42:19;3.53;;;3.00;;
15385;SDS011;7791;47.246;9.648;2022-08-20T12:44:45;3.33;;;3.03;;
15385;SDS011;7791;47.246;9.648;2022-08-20T12:47:13;3.90;;;3.07;;
15385;SDS011;7791;47.246;9.648;2022-08-20T12:49:40;4.20;;;2.33;;
15385;SDS011;7791;47.246;9.648;2022-08-20T12:52:09;2.83;;;2.60;;
15385;SDS011;7791;47.246;9.648;2022-08-20T12:54:35;3.42;;;2.00;;
15385;SDS011;7791;47.246;9.648;2022-08-20T12:57:01;1.92;;;1.83;;
15385;SDS011;7791;47.246;9.648;2022-08-20T12:59:27;2.30;;;1.73;;
15385;SDS011;7791;47.246;9.648;2022-08-20T13:01:53;3.08;;;1.90;;
15385;SDS011;7791;47.246;9.648;2022-08-20T13:04:19;3.28;;;2.45;;
15385;SDS011;7791;47.246;9.648;2022-08-20T13:06:45;3.08;;;2.72;;
15385;SDS011;7791;47.246;9.648;2022-08-20T13:09:13;2.90;;;2.65;;
15385;SDS011;7791;47.246;9.648;2022-08-20T13:11:40;3.17;;;2.88;;
15385;SDS011;7791;47.246;9.648;2022-08-20T13:14:06;2.90;;;2.33;;
15385;SDS011;7791;47.246;9.648;2022-08-20T13:16:32;2.20;;;2.00;;
15385;SDS011;7791;47.246;9.648;2022-08-20T13:18:57;1.77;;;1.67;;
15385;SDS011;7791;47.246;9.648;2022-08-20T13:21:23;2.08;;;1.85;;
15385;SDS011;7791;47.246;9.648;2022-08-20T13:23:49;2.25;;;2.05;;
15385;SDS011;7791;47.246;9.648;2022-08-20T13:26:16;2.08;;;1.58;;
15385;SDS011;7791;47.246;9.648;2022-08-20T13:28:42;1.88;;;1.67;;
15385;SDS011;7791;47.246;9.648;2022-08-20T13:31:08;2.00;;;1.80;;
15385;SDS011;7791;47.246;9.648;2022-08-20T13:33:34;1.65;;;1.55;;
15385;SDS011;7791;47.246;9.648;2022-08-20T13:36:00;2.03;;;1.83;;
15385;SDS011;7791;47.246;9.648;2022-08-20T13:38:26;1.85;;;1.75;;
15385;SDS011;7791;47.246;9.648;2022-08-20T13:40:52;1.92;;;1.70;;
15385;SDS011;7791;47.246;9.648;2022-08-20T13:43:19;2.20;;;2.00;;
15385;SDS011;7791;47.246;9.648;2022-08-20T13:45:45;5.70;;;2.10;;
15385;SDS011;7791;47.246;9.648;2022-08-20T13:48:11;3.10;;;2.50;;
15385;SDS011;7791;47.246;9.648;2022-08-20T13:50:36;2.58;;;2.35;;
15385;SDS011;7791;47.246;9.648;2022-08-20T13:53:03;4.65;;;3.20;;
15385;SDS011;7791;47.246;9.648;2022-08-20T13:55:29;3.30;;;3.00;;
15385;SDS011;7791;47.246;9.648;2022-08-20T13:57:55;5.05;;;3.20;;
15385;SDS011;7791;47.246;9.648;2022-08-20T14:00:24;2.85;;;2.53;;
15385;SDS011;7791;47.246;9.648;2022-08-20T14:02:51;5.35;;;2.72;;
15385;SDS011;7791;47.246;9.648;2022-08-20T14:05:17;3.40;;;2.58;;
15385;SDS011;7791;47.246;9.648;2022-08-20T14:07:44;4.95;;;2.75;;
15385;SDS011;7791;47.246;9.648;2022-08-20T14:10:12;2.38;;;2.17;;
15385;SDS011;7791;47.246;9.648;2022-08-20T14:12:40;4.55;;;2.53;;
15385;SDS011;7791;47.246;9.648;2022-08-20T14:15:06;5.00;;;2.70;;
15385;SDS011;7791;47.246;9.648;2022-08-20T14:17:36;4.00;;;3.60;;
15385;SDS011;7791;47.246;9.648;2022-08-20T14:20:05;4.35;;;3.60;;
15385;SDS011;7791;47.246;9.648;2022-08-20T14:22:32;3.53;;;3.22;;
15385;SDS011;7791;47.246;9.648;2022-08-20T14:25:00;4.35;;;3.15;;
15385;SDS011;7791;47.246;9.648;2022-08-20T14:27:26;3.72;;;3.33;;
15385;SDS011;7791;47.246;9.648;2022-08-20T14:29:52;4.70;;;3.40;;
15385;SDS011;7791;47.246;9.648;2022-08-20T14:32:21;4.35;;;3.30;;
15385;SDS011;7791;47.246;9.648;2022-08-20T14:34:49;3.67;;;3.03;;
15385;SDS011;7791;47.246;9.648;2022-08-20T14:37:15;3.42;;;3.00;;
15385;SDS011;7791;47.246;9.648;2022-08-20T14:39:44;3.13;;;2.83;;
15385;SDS011;7791;47.246;9.648;2022-08-20T14:42:12;3.60;;;2.95;;
15385;SDS011;7791;47.246;9.648;2022-08-20T14:44:38;3.05;;;2.75;;
15385;SDS011;7791;47.246;9.648;2022-08-20T14:47:11;3.40;;;3.10;;
15385;SDS011;7791;47.246;9.648;2022-08-20T14:49:38;4.10;;;2.70;;
15385;SDS011;7791;47.246;9.648;2022-08-20T14:52:06;3.40;;;3.10;;
15385;SDS011;7791;47.246;9.648;2022-08-20T14:54:32;3.05;;;2.78;;
15385;SDS011;7791;47.246;9.648;2022-08-20T15:00:02;3.10;;;2.75;;
15385;SDS011;7791;47.246;9.648;2022-08-20T15:02:28;3.65;;;2.95;;
15385;SDS011;7791;47.246;9.648;2022-08-20T15:04:55;3.90;;;2.85;;
15385;SDS011;7791;47.246;9.648;2022-08-20T15:07:24;3.33;;;2.92;;
15385;SDS011;7791;47.246;9.648;2022-08-20T15:09:51;3.97;;;2.60;;
15385;SDS011;7791;47.246;9.648;2022-08-20T15:12:17;4.72;;;2.70;;
15385;SDS011;7791;47.246;9.648;2022-08-20T15:14:44;3.55;;;2.83;;
15385;SDS011;7791;47.246;9.648;2022-08-20T15:17:10;3.20;;;2.90;;
15385;SDS011;7791;47.246;9.648;2022-08-20T15:19:41;3.33;;;2.60;;
15385;SDS011;7791;47.246;9.648;2022-08-20T15:22:07;4.10;;;3.33;;
15385;SDS011;7791;47.246;9.648;2022-08-20T15:24:35;5.13;;;2.90;;
15385;SDS011;7791;47.246;9.648;2022-08-20T15:27:08;3.15;;;2.85;;